Terminal Aerodrome Forecast
Issued by NWS

Home | Current Version | Previous Version | Graphics & Text | Print | Product List | Glossary On
Versions: 1 2 3 4 5 6 7 8 9 10 11 12 13 14 15 16
000
FTUS43 KICT 060520
TAFHUT
TAF
KHUT 060520Z 0606/0706 15013KT 6SM -RA SCT008 OVC015
      TEMPO 0606/0609 3SM +RA OVC007
     FM060900 17013KT 2SM +RA OVC005
     FM061500 18017KT 5SM RA OVC008=

USA.gov is the U.S. government's official web portal to all federal, state and local government web resources and services.